sensor_id;sensor_type;location;lat;lon;timestamp;pressure;altitude;pressure_sealevel;temperature;humidity
76611;BME280;65503;48.534;9.062;2023-04-25T00:01:40;96350.81;;;10.65;63.26
76611;BME280;65503;48.534;9.062;2023-04-25T00:04:06;96360.31;;;10.66;63.91
76611;BME280;65503;48.534;9.062;2023-04-25T00:06:36;96370.34;;;10.69;63.33
76611;BME280;65503;48.534;9.062;2023-04-25T00:09:04;96379.84;;;10.70;63.34
76611;BME280;65503;48.534;9.062;2023-04-25T00:11:33;96378.19;;;10.64;62.71
76611;BME280;65503;48.534;9.062;2023-04-25T00:14:00;96379.84;;;10.70;62.74
76611;BME280;65503;48.534;9.062;2023-04-25T00:16:29;96381.06;;;10.63;63.49
76611;BME280;65503;48.534;9.062;2023-04-25T00:18:57;96380.13;;;10.52;64.12
76611;BME280;65503;48.534;9.062;2023-04-25T00:21:24;96379.28;;;10.47;63.97
76611;BME280;65503;48.534;9.062;2023-04-25T00:23:55;96376.31;;;10.43;63.97
76611;BME280;65503;48.534;9.062;2023-04-25T00:26:22;96373.75;;;10.48;62.38
76611;BME280;65503;48.534;9.062;2023-04-25T00:28:48;96372.13;;;10.42;63.64
76611;BME280;65503;48.534;9.062;2023-04-25T00:31:15;96370.25;;;10.43;63.00
76611;BME280;65503;48.534;9.062;2023-04-25T00:33:41;96374.25;;;10.45;63.22
76611;BME280;65503;48.534;9.062;2023-04-25T00:36:08;96368.41;;;10.43;62.71
76611;BME280;65503;48.534;9.062;2023-04-25T00:38:35;96369.78;;;10.46;62.95
76611;BME280;65503;48.534;9.062;2023-04-25T00:41:02;96369.56;;;10.47;61.71
76611;BME280;65503;48.534;9.062;2023-04-25T00:43:30;96363.16;;;10.43;61.96
76611;BME280;65503;48.534;9.062;2023-04-25T00:45:59;96364.22;;;10.42;61.74
76611;BME280;65503;48.534;9.062;2023-04-25T00:48:26;96365.78;;;10.43;61.97
76611;BME280;65503;48.534;9.062;2023-04-25T00:50:55;96362.13;;;10.44;62.30
76611;BME280;65503;48.534;9.062;2023-04-25T00:53:24;96356.88;;;10.44;62.50
76611;BME280;65503;48.534;9.062;2023-04-25T00:55:51;96352.56;;;10.38;62.50
76611;BME280;65503;48.534;9.062;2023-04-25T00:58:19;96354.16;;;10.39;62.83
76611;BME280;65503;48.534;9.062;2023-04-25T01:00:46;96352.44;;;10.28;63.58
76611;BME280;65503;48.534;9.062;2023-04-25T01:03:16;96343.47;;;10.24;63.77
76611;BME280;65503;48.534;9.062;2023-04-25T01:05:46;96349.09;;;10.16;63.99
76611;BME280;65503;48.534;9.062;2023-04-25T01:08:14;96345.47;;;10.17;64.82
76611;BME280;65503;48.534;9.062;2023-04-25T01:10:40;96338.44;;;10.22;65.97
76611;BME280;65503;48.534;9.062;2023-04-25T01:13:07;96328.72;;;10.23;65.52
76611;BME280;65503;48.534;9.062;2023-04-25T01:15:34;96328.41;;;10.19;65.50
76611;BME280;65503;48.534;9.062;2023-04-25T01:18:03;96330.13;;;10.14;65.71
76611;BME280;65503;48.534;9.062;2023-04-25T01:20:31;96330.13;;;10.14;66.14
76611;BME280;65503;48.534;9.062;2023-04-25T01:22:58;96328.06;;;10.16;65.72
76611;BME280;65503;48.534;9.062;2023-04-25T01:25:25;96326.97;;;10.12;65.74
76611;BME280;65503;48.534;9.062;2023-04-25T01:27:52;96332.22;;;10.12;65.75
76611;BME280;65503;48.534;9.062;2023-04-25T01:30:19;96326.03;;;10.18;65.36
76611;BME280;65503;48.534;9.062;2023-04-25T01:32:46;96329.19;;;10.20;63.72
76611;BME280;65503;48.534;9.062;2023-04-25T01:35:14;96329.69;;;10.17;64.44
76611;BME280;65503;48.534;9.062;2023-04-25T01:37:42;96328.56;;;10.13;65.01
76611;BME280;65503;48.534;9.062;2023-04-25T01:40:10;96326.97;;;10.12;65.37
76611;BME280;65503;48.534;9.062;2023-04-25T01:42:41;96323.47;;;10.06;64.22
76611;BME280;65503;48.534;9.062;2023-04-25T01:45:09;96326.25;;;10.00;64.71
76611;BME280;65503;48.534;9.062;2023-04-25T01:47:37;96328.31;;;9.98;64.92
76611;BME280;65503;48.534;9.062;2023-04-25T01:50:06;96325.75;;;10.03;63.75
76611;BME280;65503;48.534;9.062;2023-04-25T01:52:33;96325.69;;;9.98;64.26
76611;BME280;65503;48.534;9.062;2023-04-25T01:55:02;96326.19;;;9.94;63.90
76611;BME280;65503;48.534;9.062;2023-04-25T01:57:28;96329.19;;;10.03;64.06
76611;BME280;65503;48.534;9.062;2023-04-25T01:59:59;96331.22;;;9.96;64.17
76611;BME280;65503;48.534;9.062;2023-04-25T02:02:26;96336.19;;;9.98;64.67
76611;BME280;65503;48.534;9.062;2023-04-25T02:04:53;96334.28;;;10.10;64.04
76611;BME280;65503;48.534;9.062;2023-04-25T02:07:20;96329.03;;;10.10;64.23
76611;BME280;65503;48.534;9.062;2023-04-25T02:09:47;96324.09;;;10.13;63.81
76611;BME280;65503;48.534;9.062;2023-04-25T02:12:14;96322.72;;;10.11;62.07
76611;BME280;65503;48.534;9.062;2023-04-25T02:14:40;96316.25;;;9.97;62.49
76611;BME280;65503;48.534;9.062;2023-04-25T02:17:07;96313.69;;;10.02;62.60
76611;BME280;65503;48.534;9.062;2023-04-25T02:19:34;96322.53;;;9.95;62.96
76611;BME280;65503;48.534;9.062;2023-04-25T02:22:00;96309.38;;;9.95;63.63
76611;BME280;65503;48.534;9.062;2023-04-25T02:24:27;96311.06;;;10.02;63.69
76611;BME280;65503;48.534;9.062;2023-04-25T02:26:54;96307.06;;;9.99;63.95
76611;BME280;65503;48.534;9.062;2023-04-25T02:29:22;96310.88;;;9.91;64.08
76611;BME280;65503;48.534;9.062;2023-04-25T02:31:49;96317.91;;;9.86;64.86
76611;BME280;65503;48.534;9.062;2023-04-25T02:34:15;96325.88;;;9.74;65.36
76611;BME280;65503;48.534;9.062;2023-04-25T02:36:42;96318.41;;;9.66;65.62
76611;BME280;65503;48.534;9.062;2023-04-25T02:39:08;96330.50;;;9.67;65.75
76611;BME280;65503;48.534;9.062;2023-04-25T02:41:35;96319.13;;;9.62;65.71
76611;BME280;65503;48.534;9.062;2023-04-25T02:44:01;96317.47;;;9.56;65.56
76611;BME280;65503;48.534;9.062;2023-04-25T02:46:28;96321.41;;;9.58;66.58
76611;BME280;65503;48.534;9.062;2023-04-25T02:49:05;96309.97;;;9.64;66.51
76611;BME280;65503;48.534;9.062;2023-04-25T02:51:32;96304.69;;;9.64;66.33
76611;BME280;65503;48.534;9.062;2023-04-25T02:53:59;96310.53;;;9.66;65.72
76611;BME280;65503;48.534;9.062;2023-04-25T02:56:25;96305.19;;;9.61;65.51
76611;BME280;65503;48.534;9.062;2023-04-25T02:58:53;96307.75;;;9.56;66.02
76611;BME280;65503;48.534;9.062;2023-04-25T03:01:19;96313.00;;;9.56;65.96
76611;BME280;65503;48.534;9.062;2023-04-25T03:03:46;96305.03;;;9.51;65.92
76611;BME280;65503;48.534;9.062;2023-04-25T03:06:13;96296.59;;;9.49;66.22
76611;BME280;65503;48.534;9.062;2023-04-25T03:08:40;96297.16;;;9.51;66.21
76611;BME280;65503;48.534;9.062;2023-04-25T03:11:06;96299.78;;;9.51;65.90
76611;BME280;65503;48.534;9.062;2023-04-25T03:13:33;96299.88;;;9.56;66.09
76611;BME280;65503;48.534;9.062;2023-04-25T03:15:59;96295.16;;;9.58;66.30
76611;BME280;65503;48.534;9.062;2023-04-25T03:18:26;96295.00;;;9.65;66.38
76611;BME280;65503;48.534;9.062;2023-04-25T03:20:52;96293.16;;;9.65;66.09
76611;BME280;65503;48.534;9.062;2023-04-25T03:23:19;96294.53;;;9.68;65.65
76611;BME280;65503;48.534;9.062;2023-04-25T03:25:46;96294.03;;;9.71;65.98
76611;BME280;65503;48.534;9.062;2023-04-25T03:28:12;96288.00;;;9.70;66.18
76611;BME280;65503;48.534;9.062;2023-04-25T03:30:39;96285.94;;;9.72;66.11
76611;BME280;65503;48.534;9.062;2023-04-25T03:33:05;96286.56;;;9.79;65.94
76611;BME280;65503;48.534;9.062;2023-04-25T03:35:31;96288.94;;;9.81;65.55
76611;BME280;65503;48.534;9.062;2023-04-25T03:37:58;96284.97;;;9.78;65.90
76611;BME280;65503;48.534;9.062;2023-04-25T03:40:24;96282.56;;;9.77;65.66
76611;BME280;65503;48.534;9.062;2023-04-25T03:42:51;96275.41;;;9.72;65.38
76611;BME280;65503;48.534;9.062;2023-04-25T03:45:17;96272.47;;;9.69;64.62
76611;BME280;65503;48.534;9.062;2023-04-25T03:47:44;96277.91;;;9.62;64.98
76611;BME280;65503;48.534;9.062;2023-04-25T03:50:10;96281.47;;;9.56;65.01
76611;BME280;65503;48.534;9.062;2023-04-25T03:52:37;96287.28;;;9.41;66.41
76611;BME280;65503;48.534;9.062;2023-04-25T03:55:04;96277.81;;;9.40;66.48
76611;BME280;65503;48.534;9.062;2023-04-25T03:57:31;96277.81;;;9.40;66.87
76611;BME280;65503;48.534;9.062;2023-04-25T03:59:57;96280.69;;;9.39;66.59
76611;BME280;65503;48.534;9.062;2023-04-25T04:02:23;96286.91;;;9.33;67.27
76611;BME280;65503;48.534;9.062;2023-04-25T04:04:50;96280.50;;;9.29;67.31
76611;BME280;65503;48.534;9.062;2023-04-25T04:07:17;96276.53;;;9.26;67.13
76611;BME280;65503;48.534;9.062;2023-04-25T04:09:44;96279.88;;;9.22;67.17
76611;BME280;65503;48.534;9.062;2023-04-25T04:12:10;96284.84;;;9.06;66.78
76611;BME280;65503;48.534;9.062;2023-04-25T04:14:37;96281.59;;;8.99;67.08
76611;BME280;65503;48.534;9.062;2023-04-25T04:17:03;96285.72;;;8.95;67.74
76611;BME280;65503;48.534;9.062;2023-04-25T04:19:30;96287.00;;;8.93;67.69
76611;BME280;65503;48.534;9.062;2023-04-25T04:21:56;96293.50;;;8.90;67.46
76611;BME280;65503;48.534;9.062;2023-04-25T04:24:22;96291.09;;;8.89;68.03
76611;BME280;65503;48.534;9.062;2023-04-25T04:26:50;96285.09;;;8.88;67.82
76611;BME280;65503;48.534;9.062;2023-04-25T04:29:17;96284.91;;;8.95;68.01
76611;BME280;65503;48.534;9.062;2023-04-25T04:31:48;96288.34;;;8.95;68.15
76611;BME280;65503;48.534;9.062;2023-04-25T04:34:16;96301.47;;;8.95;68.07
76611;BME280;65503;48.534;9.062;2023-04-25T04:36:44;96290.88;;;8.90;68.24
76611;BME280;65503;48.534;9.062;2023-04-25T04:39:13;96293.41;;;8.85;67.99
76611;BME280;65503;48.534;9.062;2023-04-25T04:41:39;96297.63;;;8.86;67.67
76611;BME280;65503;48.534;9.062;2023-04-25T04:44:06;96303.00;;;8.80;68.00
76611;BME280;65503;48.534;9.062;2023-04-25T04:46:35;96298.09;;;8.83;67.94
76611;BME280;65503;48.534;9.062;2023-04-25T04:49:13;96305.50;;;8.86;67.94
76611;BME280;65503;48.534;9.062;2023-04-25T04:51:43;96304.88;;;8.96;67.95
76611;BME280;65503;48.534;9.062;2023-04-25T04:54:13;96301.81;;;9.16;67.54
76611;BME280;65503;48.534;9.062;2023-04-25T04:56:39;96306.59;;;9.35;66.75
76611;BME280;65503;48.534;9.062;2023-04-25T04:59:06;96313.88;;;9.45;66.01
76611;BME280;65503;48.534;9.062;2023-04-25T05:01:33;96311.88;;;9.52;65.32
76611;BME280;65503;48.534;9.062;2023-04-25T05:04:02;96319.81;;;9.57;65.28
76611;BME280;65503;48.534;9.062;2023-04-25T05:06:30;96320.00;;;9.67;65.73
76611;BME280;65503;48.534;9.062;2023-04-25T05:08:57;96320.38;;;9.76;65.02
76611;BME280;65503;48.534;9.062;2023-04-25T05:11:24;96317.84;;;9.64;65.38
76611;BME280;65503;48.534;9.062;2023-04-25T05:13:54;96329.88;;;9.60;66.03
76611;BME280;65503;48.534;9.062;2023-04-25T05:16:20;96319.34;;;9.60;66.01
76611;BME280;65503;48.534;9.062;2023-04-25T05:18:47;96320.00;;;9.50;65.89
76611;BME280;65503;48.534;9.062;2023-04-25T05:21:14;96320.63;;;9.58;66.22
76611;BME280;65503;48.534;9.062;2023-04-25T05:23:40;96311.56;;;9.65;65.99
76611;BME280;65503;48.534;9.062;2023-04-25T05:26:06;96314.25;;;9.70;66.30
76611;BME280;65503;48.534;9.062;2023-04-25T05:28:40;96304.06;;;9.57;64.73
76611;BME280;65503;48.534;9.062;2023-04-25T05:31:09;96304.63;;;9.59;66.10
76611;BME280;65503;48.534;9.062;2023-04-25T05:33:36;96301.13;;;9.70;67.24
76611;BME280;65503;48.534;9.062;2023-04-25T05:36:03;96305.03;;;9.84;66.01
76611;BME280;65503;48.534;9.062;2023-04-25T05:38:30;96297.13;;;10.01;65.85
76611;BME280;65503;48.534;9.062;2023-04-25T05:41:00;96308.00;;;10.10;65.86
76611;BME280;65503;48.534;9.062;2023-04-25T05:43:26;96307.25;;;10.31;66.15
76611;BME280;65503;48.534;9.062;2023-04-25T05:45:53;96304.38;;;10.54;65.45
76611;BME280;65503;48.534;9.062;2023-04-25T05:48:19;96307.25;;;10.74;65.48
76611;BME280;65503;48.534;9.062;2023-04-25T05:50:46;96313.75;;;10.94;64.09
76611;BME280;65503;48.534;9.062;2023-04-25T05:53:12;96316.56;;;11.09;62.17
76611;BME280;65503;48.534;9.062;2023-04-25T05:55:39;96299.28;;;11.18;61.23
76611;BME280;65503;48.534;9.062;2023-04-25T05:58:05;96298.84;;;11.26;61.37
76611;BME280;65503;48.534;9.062;2023-04-25T06:00:35;96296.13;;;11.48;61.07
76611;BME280;65503;48.534;9.062;2023-04-25T06:03:01;96298.09;;;11.68;59.63
76611;BME280;65503;48.534;9.062;2023-04-25T06:05:28;96302.88;;;11.71;59.45
76611;BME280;65503;48.534;9.062;2023-04-25T06:07:55;96301.53;;;12.00;56.74
76611;BME280;65503;48.534;9.062;2023-04-25T06:10:22;96304.69;;;12.02;57.95
76611;BME280;65503;48.534;9.062;2023-04-25T06:12:48;96309.03;;;12.18;57.63
76611;BME280;65503;48.534;9.062;2023-04-25T06:15:15;96308.16;;;12.08;57.24
76611;BME280;65503;48.534;9.062;2023-04-25T06:17:55;96312.47;;;11.82;56.64
76611;BME280;65503;48.534;9.062;2023-04-25T06:20:22;96316.13;;;11.76;58.05
76611;BME280;65503;48.534;9.062;2023-04-25T06:22:51;96323.75;;;11.45;57.75
76611;BME280;65503;48.534;9.062;2023-04-25T06:25:18;96322.03;;;11.29;57.93
76611;BME280;65503;48.534;9.062;2023-04-25T06:27:44;96319.81;;;11.16;58.38
76611;BME280;65503;48.534;9.062;2023-04-25T06:30:11;96321.94;;;10.92;59.29
76611;BME280;65503;48.534;9.062;2023-04-25T06:32:38;96321.50;;;10.78;59.98
76611;BME280;65503;48.534;9.062;2023-04-25T06:35:05;96317.72;;;10.69;59.75
76611;BME280;65503;48.534;9.062;2023-04-25T06:37:32;96316.03;;;10.58;60.07
76611;BME280;65503;48.534;9.062;2023-04-25T06:39:58;96316.69;;;10.49;60.39
76611;BME280;65503;48.534;9.062;2023-04-25T06:42:25;96319.63;;;10.52;61.20
76611;BME280;65503;48.534;9.062;2023-04-25T06:44:51;96316.31;;;10.40;60.28
76611;BME280;65503;48.534;9.062;2023-04-25T06:47:18;96319.94;;;10.34;60.72
76611;BME280;65503;48.534;9.062;2023-04-25T06:49:45;96323.94;;;10.20;60.78
76611;BME280;65503;48.534;9.062;2023-04-25T06:52:11;96322.22;;;10.14;60.23
76611;BME280;65503;48.534;9.062;2023-04-25T06:54:37;96321.19;;;10.15;60.90
76611;BME280;65503;48.534;9.062;2023-04-25T06:57:04;96319.34;;;9.93;61.68
76611;BME280;65503;48.534;9.062;2023-04-25T06:59:30;96322.47;;;9.90;63.14
76611;BME280;65503;48.534;9.062;2023-04-25T07:01:56;96319.06;;;9.73;63.54
76611;BME280;65503;48.534;9.062;2023-04-25T07:04:23;96323.16;;;9.69;64.24
76611;BME280;65503;48.534;9.062;2023-04-25T07:06:50;96324.31;;;9.73;64.48
76611;BME280;65503;48.534;9.062;2023-04-25T07:09:16;96333.06;;;9.62;64.40
76611;BME280;65503;48.534;9.062;2023-04-25T07:11:43;96327.09;;;9.67;64.58
76611;BME280;65503;48.534;9.062;2023-04-25T07:14:09;96323.16;;;9.69;65.21
76611;BME280;65503;48.534;9.062;2023-04-25T07:16:36;96324.75;;;9.70;65.51
76611;BME280;65503;48.534;9.062;2023-04-25T07:19:02;96326.06;;;9.51;65.54
76611;BME280;65503;48.534;9.062;2023-04-25T07:21:29;96321.75;;;9.45;65.96
76611;BME280;65503;48.534;9.062;2023-04-25T07:23:57;96321.25;;;9.48;66.44
76611;BME280;65503;48.534;9.062;2023-04-25T07:26:24;96323.50;;;9.56;67.15
76611;BME280;65503;48.534;9.062;2023-04-25T07:28:50;96325.34;;;9.72;67.39
76611;BME280;65503;48.534;9.062;2023-04-25T07:31:17;96331.63;;;9.71;66.77
76611;BME280;65503;48.534;9.062;2023-04-25T07:33:44;96329.44;;;9.68;67.52
76611;BME280;65503;48.534;9.062;2023-04-25T07:36:12;96333.06;;;9.79;68.39
76611;BME280;65503;48.534;9.062;2023-04-25T07:38:39;96334.47;;;9.86;66.75
76611;BME280;65503;48.534;9.062;2023-04-25T07:41:05;96337.34;;;9.85;67.92
76611;BME280;65503;48.534;9.062;2023-04-25T07:43:32;96340.84;;;9.90;67.99
76611;BME280;65503;48.534;9.062;2023-04-25T07:45:59;96339.41;;;10.00;68.15
76611;BME280;65503;48.534;9.062;2023-04-25T07:48:25;96346.69;;;10.14;67.69
76611;BME280;65503;48.534;9.062;2023-04-25T07:50:52;96348.22;;;10.10;67.72
76611;BME280;65503;48.534;9.062;2023-04-25T07:53:19;96352.69;;;10.10;66.74
76611;BME280;65503;48.534;9.062;2023-04-25T07:55:45;96358.19;;;10.25;66.99
76611;BME280;65503;48.534;9.062;2023-04-25T07:58:13;96350.84;;;10.27;66.70
76611;BME280;65503;48.534;9.062;2023-04-25T08:00:41;96355.00;;;10.23;67.10
76611;BME280;65503;48.534;9.062;2023-04-25T08:03:09;96365.03;;;10.26;67.26
76611;BME280;65503;48.534;9.062;2023-04-25T08:05:36;96370.28;;;10.26;67.26
76611;BME280;65503;48.534;9.062;2023-04-25T08:08:03;96370.13;;;10.16;68.86
76611;BME280;65503;48.534;9.062;2023-04-25T08:10:29;96375.59;;;10.14;68.89
76611;BME280;65503;48.534;9.062;2023-04-25T08:12:56;96375.22;;;10.06;68.89
76611;BME280;65503;48.534;9.062;2023-04-25T08:15:22;96379.13;;;9.86;68.08
76611;BME280;65503;48.534;9.062;2023-04-25T08:17:49;96388.31;;;9.67;69.75
76611;BME280;65503;48.534;9.062;2023-04-25T08:20:15;96384.16;;;9.71;69.98
76611;BME280;65503;48.534;9.062;2023-04-25T08:22:42;96397.69;;;9.80;70.50
76611;BME280;65503;48.534;9.062;2023-04-25T08:25:08;96398.47;;;9.80;70.97
76611;BME280;65503;48.534;9.062;2023-04-25T08:27:35;96406.94;;;9.99;71.17
76611;BME280;65503;48.534;9.062;2023-04-25T08:30:03;96408.44;;;10.12;71.02
76611;BME280;65503;48.534;9.062;2023-04-25T08:32:30;96409.44;;;10.22;70.65
76611;BME280;65503;48.534;9.062;2023-04-25T08:34:56;96413.41;;;10.25;69.76
76611;BME280;65503;48.534;9.062;2023-04-25T08:37:23;96426.84;;;10.12;69.76
76611;BME280;65503;48.534;9.062;2023-04-25T08:39:49;96423.88;;;9.91;70.20
76611;BME280;65503;48.534;9.062;2023-04-25T08:42:19;96435.97;;;9.76;71.00
76611;BME280;65503;48.534;9.062;2023-04-25T08:44:47;96435.50;;;9.62;71.76
76611;BME280;65503;48.534;9.062;2023-04-25T08:47:14;96446.56;;;9.64;71.98
76611;BME280;65503;48.534;9.062;2023-04-25T08:49:45;96448.19;;;9.25;70.71
76611;BME280;65503;48.534;9.062;2023-04-25T08:52:13;96455.91;;;9.03;70.73
76611;BME280;65503;48.534;9.062;2023-04-25T08:54:45;96457.50;;;9.04;71.57
76611;BME280;65503;48.534;9.062;2023-04-25T08:57:14;96459.41;;;9.21;71.36
76611;BME280;65503;48.534;9.062;2023-04-25T08:59:41;96459.75;;;9.12;70.78
76611;BME280;65503;48.534;9.062;2023-04-25T09:02:12;96462.28;;;9.07;71.40
76611;BME280;65503;48.534;9.062;2023-04-25T09:04:45;96459.31;;;9.16;71.58
76611;BME280;65503;48.534;9.062;2023-04-25T09:07:11;96481.22;;;9.09;71.46
76611;BME280;65503;48.534;9.062;2023-04-25T09:09:38;96469.94;;;9.09;71.74
76611;BME280;65503;48.534;9.062;2023-04-25T09:12:05;96479.50;;;9.15;71.55
76611;BME280;65503;48.534;9.062;2023-04-25T09:14:32;96489.44;;;9.01;69.47
76611;BME280;65503;48.534;9.062;2023-04-25T09:17:00;96490.06;;;8.80;69.80
76611;BME280;65503;48.534;9.062;2023-04-25T09:19:30;96495.53;;;8.67;70.61
76611;BME280;65503;48.534;9.062;2023-04-25T09:22:07;96503.41;;;8.67;71.10
76611;BME280;65503;48.534;9.062;2023-04-25T09:24:36;96505.91;;;8.62;71.44
76611;BME280;65503;48.534;9.062;2023-04-25T09:27:06;96504.78;;;8.58;71.28
76611;BME280;65503;48.534;9.062;2023-04-25T09:29:35;96511.25;;;8.55;71.62
76611;BME280;65503;48.534;9.062;2023-04-25T09:34:44;96524.63;;;8.42;71.26
76611;BME280;65503;48.534;9.062;2023-04-25T09:37:11;96523.00;;;8.41;72.06
76611;BME280;65503;48.534;9.062;2023-04-25T09:39:38;96534.75;;;8.50;72.22
76611;BME280;65503;48.534;9.062;2023-04-25T09:42:05;96540.81;;;8.21;71.91
76611;BME280;65503;48.534;9.062;2023-04-25T09:44:31;96536.59;;;8.08;73.32
76611;BME280;65503;48.534;9.062;2023-04-25T09:46:58;96547.66;;;8.22;72.39
76611;BME280;65503;48.534;9.062;2023-04-25T09:49:26;96545.81;;;8.11;72.09
76611;BME280;65503;48.534;9.062;2023-04-25T09:51:57;96551.44;;;8.14;72.21
76611;BME280;65503;48.534;9.062;2023-04-25T09:54:25;96554.06;;;8.14;71.53
76611;BME280;65503;48.534;9.062;2023-04-25T09:56:53;96560.75;;;8.10;71.55
76611;BME280;65503;48.534;9.062;2023-04-25T09:59:21;96565.44;;;8.08;72.15
76611;BME280;65503;48.534;9.062;2023-04-25T10:01:51;96561.13;;;7.84;71.63
76611;BME280;65503;48.534;9.062;2023-04-25T10:04:20;96566.72;;;7.39;71.72
76611;BME280;65503;48.534;9.062;2023-04-25T10:06:49;96574.31;;;7.59;72.23
76611;BME280;65503;48.534;9.062;2023-04-25T10:09:19;96567.94;;;7.55;71.54
76611;BME280;65503;48.534;9.062;2023-04-25T10:11:46;96573.97;;;7.56;72.32
76611;BME280;65503;48.534;9.062;2023-04-25T10:14:17;96575.31;;;7.58;71.61
76611;BME280;65503;48.534;9.062;2023-04-25T10:16:45;96574.09;;;7.61;72.46
76611;BME280;65503;48.534;9.062;2023-04-25T10:19:13;96577.53;;;7.61;71.45
76611;BME280;65503;48.534;9.062;2023-04-25T10:21:46;96578.47;;;7.67;72.28
76611;BME280;65503;48.534;9.062;2023-04-25T10:24:14;96591.19;;;7.63;71.96
76611;BME280;65503;48.534;9.062;2023-04-25T10:26:41;96590.94;;;7.83;72.50
76611;BME280;65503;48.534;9.062;2023-04-25T10:29:09;96589.41;;;7.75;71.79
76611;BME280;65503;48.534;9.062;2023-04-25T10:31:45;96587.47;;;7.71;71.58
76611;BME280;65503;48.534;9.062;2023-04-25T10:34:12;96583.56;;;7.43;71.97
76611;BME280;65503;48.534;9.062;2023-04-25T10:36:39;96586.59;;;7.40;72.76
76611;BME280;65503;48.534;9.062;2023-04-25T10:39:06;96590.16;;;7.64;72.48
76611;BME280;65503;48.534;9.062;2023-04-25T10:41:52;96595.00;;;7.97;72.03
76611;BME280;65503;48.534;9.062;2023-04-25T10:44:19;96591.56;;;7.67;71.56
76611;BME280;65503;48.534;9.062;2023-04-25T10:46:45;96594.75;;;7.69;71.42
76611;BME280;65503;48.534;9.062;2023-04-25T10:49:29;96593.78;;;7.63;72.21
76611;BME280;65503;48.534;9.062;2023-04-25T10:54:54;96600.00;;;8.28;71.63
76611;BME280;65503;48.534;9.062;2023-04-25T11:00:19;96619.91;;;8.48;68.64
76611;BME280;65503;48.534;9.062;2023-04-25T11:03:06;96615.66;;;8.88;68.11
76611;BME280;65503;48.534;9.062;2023-04-25T11:05:37;96620.88;;;8.65;67.79
76611;BME280;65503;48.534;9.062;2023-04-25T11:08:32;96611.34;;;8.41;69.14
76611;BME280;65503;48.534;9.062;2023-04-25T11:11:07;96622.19;;;8.56;69.92
76611;BME280;65503;48.534;9.062;2023-04-25T11:13:34;96625.78;;;8.32;69.91
76611;BME280;65503;48.534;9.062;2023-04-25T11:16:00;96631.31;;;8.42;69.91
76611;BME280;65503;48.534;9.062;2023-04-25T11:18:41;96629.56;;;8.36;70.21
76611;BME280;65503;48.534;9.062;2023-04-25T11:21:08;96642.81;;;8.41;70.63
76611;BME280;65503;48.534;9.062;2023-04-25T11:23:34;96631.72;;;8.39;69.88
76611;BME280;65503;48.534;9.062;2023-04-25T11:26:01;96644.69;;;8.63;70.17
76611;BME280;65503;48.534;9.062;2023-04-25T11:28:27;96634.09;;;8.70;69.56
76611;BME280;65503;48.534;9.062;2023-04-25T11:30:54;96634.28;;;8.57;69.25
76611;BME280;65503;48.534;9.062;2023-04-25T11:33:23;96633.63;;;8.73;69.40
76611;BME280;65503;48.534;9.062;2023-04-25T11:35:53;96634.78;;;8.77;68.95
76611;BME280;65503;48.534;9.062;2023-04-25T11:38:20;96638.22;;;9.12;68.69
76611;BME280;65503;48.534;9.062;2023-04-25T11:40:50;96627.84;;;9.41;67.61
76611;BME280;65503;48.534;9.062;2023-04-25T11:43:20;96630.13;;;9.49;66.47
76611;BME280;65503;48.534;9.062;2023-04-25T11:45:50;96630.91;;;9.61;66.82
76611;BME280;65503;48.534;9.062;2023-04-25T11:48:19;96634.31;;;9.73;66.84
76611;BME280;65503;48.534;9.062;2023-04-25T11:50:51;96631.84;;;9.95;66.89
76611;BME280;65503;48.534;9.062;2023-04-25T11:53:19;96634.03;;;9.86;66.50
76611;BME280;65503;48.534;9.062;2023-04-25T11:55:46;96635.38;;;10.01;67.01
76611;BME280;65503;48.534;9.062;2023-04-25T11:58:13;96639.91;;;10.17;65.77
76611;BME280;65503;48.534;9.062;2023-04-25T12:00:42;96647.09;;;10.21;67.00
76611;BME280;65503;48.534;9.062;2023-04-25T12:03:17;96637.09;;;10.35;65.58
76611;BME280;65503;48.534;9.062;2023-04-25T12:05:45;96648.69;;;10.22;66.31
76611;BME280;65503;48.534;9.062;2023-04-25T12:08:14;96645.56;;;9.85;66.59
76611;BME280;65503;48.534;9.062;2023-04-25T12:10:42;96644.53;;;9.86;67.60
76611;BME280;65503;48.534;9.062;2023-04-25T12:13:24;96645.94;;;9.77;67.75
76611;BME280;65503;48.534;9.062;2023-04-25T12:15:51;96655.34;;;9.73;68.43
76611;BME280;65503;48.534;9.062;2023-04-25T12:18:23;96656.25;;;9.67;67.72
76611;BME280;65503;48.534;9.062;2023-04-25T12:20:52;96649.59;;;9.76;67.78
76611;BME280;65503;48.534;9.062;2023-04-25T12:23:26;96653.19;;;9.99;68.01
76611;BME280;65503;48.534;9.062;2023-04-25T12:25:53;96657.53;;;10.05;68.21
76611;BME280;65503;48.534;9.062;2023-04-25T12:28:21;96663.09;;;10.08;67.45
76611;BME280;65503;48.534;9.062;2023-04-25T12:33:34;96672.63;;;9.98;67.96
76611;BME280;65503;48.534;9.062;2023-04-25T12:36:01;96665.78;;;9.97;67.23
76611;BME280;65503;48.534;9.062;2023-04-25T12:38:36;96679.28;;;9.88;68.91
76611;BME280;65503;48.534;9.062;2023-04-25T12:41:04;96684.41;;;9.95;69.09
76611;BME280;65503;48.534;9.062;2023-04-25T12:43:30;96667.09;;;10.11;68.67
76611;BME280;65503;48.534;9.062;2023-04-25T12:45:57;96677.75;;;10.44;68.86
76611;BME280;65503;48.534;9.062;2023-04-25T12:48:24;96667.41;;;10.54;68.55
76611;BME280;65503;48.534;9.062;2023-04-25T12:50:51;96679.03;;;10.87;67.77
76611;BME280;65503;48.534;9.062;2023-04-25T12:53:22;96669.56;;;11.19;67.36
76611;BME280;65503;48.534;9.062;2023-04-25T12:55:49;96676.25;;;11.43;67.66
76611;BME280;65503;48.534;9.062;2023-04-25T12:58:17;96666.72;;;11.42;67.06
76611;BME280;65503;48.534;9.062;2023-04-25T13:00:45;96674.59;;;11.76;67.21
76611;BME280;65503;48.534;9.062;2023-04-25T13:03:11;96670.59;;;11.56;65.28
76611;BME280;65503;48.534;9.062;2023-04-25T13:05:39;96682.28;;;11.77;64.88
76611;BME280;65503;48.534;9.062;2023-04-25T13:08:06;96677.31;;;11.81;64.08
76611;BME280;65503;48.534;9.062;2023-04-25T13:10:32;96681.94;;;11.57;64.83
76611;BME280;65503;48.534;9.062;2023-04-25T13:13:00;96676.88;;;11.17;68.03
76611;BME280;65503;48.534;9.062;2023-04-25T13:15:27;96685.03;;;11.32;67.61
76611;BME280;65503;48.534;9.062;2023-04-25T13:17:53;96676.25;;;11.43;66.81
76611;BME280;65503;48.534;9.062;2023-04-25T13:20:20;96678.44;;;11.51;66.28
76611;BME280;65503;48.534;9.062;2023-04-25T13:22:48;96684.47;;;11.69;66.13